Time;durP1;ratioP1;P1;durP2;ratioP2;P2;SDS_P1;SDS_P2;PMS_P1;PMS_P2;Temp;Humidity;BMP_temperature;BMP_pressure;BME280_temperature;BME280_humidity;BME280_pressure;Samples;Min_cycle;Max_cycle;Signal;HPM_P1;HPM_P2
2022/02/06 00:02:23;;;;;;;58.60;52.60;;;;;;;;;;4970841;28;20027;-79
2022/02/06 00:04:49;;;;;;;57.92;52.03;;;;;;;;;;4976656;28;20022;-79
2022/02/06 00:07:14;;;;;;;57.83;52.28;;;;;;;;;;4992790;28;20023;-77
2022/02/06 00:09:40;;;;;;;56.07;50.93;;;;;;;;;;5006488;28;20039;-77
2022/02/06 00:12:06;;;;;;;57.95;52.25;;;;;;;;;;4991918;28;20039;-77
2022/02/06 00:14:31;;;;;;;57.20;51.87;;;;;;;;;;4995395;28;20039;-76
2022/02/06 00:16:57;;;;;;;57.30;51.65;;;;;;;;;;5001501;28;20116;-77
2022/02/06 00:19:22;;;;;;;57.47;51.83;;;;;;;;;;4996515;28;20015;-76
2022/02/06 00:21:47;;;;;;;56.33;50.47;;;;;;;;;;4997482;28;20014;-76
2022/02/06 00:24:20;;;;;;;56.53;51.20;;;;;;;;;;4995427;28;20034;-78
2022/02/06 00:26:57;;;;;;;56.75;51.45;;;;;;;;;;4993966;28;20023;-78
2022/02/06 00:29:33;;;;;;;55.67;50.50;;;;;;;;;;4997089;28;20110;-78
2022/02/06 00:32:02;;;;;;;55.67;50.60;;;;;;;;;;4995043;28;20023;-78
2022/02/06 00:39:48;;;;;;;64.60;53.60;;;;;;;;;;4981909;28;20081;-81
2022/02/06 00:42:14;;;;;;;58.37;52.20;;;;;;;;;;4974616;28;20106;-82
2022/02/06 00:44:39;;;;;;;58.63;52.63;;;;;;;;;;4990567;28;20099;-83
2022/02/06 00:47:05;;;;;;;56.78;51.17;;;;;;;;;;4992837;28;20030;-87
2022/02/06 00:49:31;;;;;;;57.83;51.53;;;;;;;;;;4996149;28;20015;-81
2022/02/06 00:54:41;;;;;;;74.45;55.15;;;;;;;;;;4994743;28;20022;-80
2022/02/06 00:57:08;;;;;;;68.83;55.40;;;;;;;;;;4995962;28;20086;-80
2022/02/06 00:59:33;;;;;;;63.45;54.72;;;;;;;;;;4993897;28;20007;-79
2022/02/06 01:01:59;;;;;;;58.80;52.57;;;;;;;;;;4989684;28;20042;-79
2022/02/06 01:04:24;;;;;;;59.67;53.23;;;;;;;;;;4996638;28;20027;-80
2022/02/06 01:06:49;;;;;;;55.43;50.43;;;;;;;;;;4997924;28;20050;-79
2022/02/06 01:09:17;;;;;;;56.17;50.73;;;;;;;;;;4989268;28;20038;-79
2022/02/06 01:11:42;;;;;;;57.40;51.67;;;;;;;;;;4980827;28;20075;-79
2022/02/06 01:14:29;;;;;;;56.20;50.83;;;;;;;;;;4980018;28;20014;-80
2022/02/06 01:19:35;;;;;;;56.90;51.28;;;;;;;;;;4982716;28;20022;-80
2022/02/06 01:22:05;;;;;;;57.38;51.85;;;;;;;;;;4968937;28;20054;-79
2022/02/06 01:24:45;;;;;;;56.00;50.75;;;;;;;;;;4979310;28;20476;-79
2022/02/06 01:27:18;;;;;;;55.88;50.60;;;;;;;;;;4977288;28;20034;-78
2022/02/06 01:32:15;;;;;;;57.00;51.60;;;;;;;;;;4975666;28;20034;-79
2022/02/06 01:39:58;;;;;;;58.47;52.55;;;;;;;;;;4979159;28;20019;-79
2022/02/06 02:01:28;;;;;;;58.25;52.40;;;;;;;;;;4974631;28;20113;-79
2022/02/06 02:04:05;;;;;;;55.67;50.22;;;;;;;;;;4980639;28;20018;-78
2022/02/06 02:11:41;;;;;;;56.85;51.15;;;;;;;;;;4969120;28;20522;-79
2022/02/06 02:14:21;;;;;;;57.05;51.45;;;;;;;;;;4988469;28;20018;-81
2022/02/06 02:17:12;;;;;;;57.30;51.60;;;;;;;;;;4968256;28;20247;-79
2022/02/06 02:25:19;;;;;;;58.05;52.25;;;;;;;;;;4977912;28;20026;-77
2022/02/06 02:27:58;;;;;;;57.20;51.70;;;;;;;;;;4974258;28;20018;-79
2022/02/06 02:30:58;;;;;;;60.22;53.40;;;;;;;;;;4977597;28;20014;-79
2022/02/06 02:47:12;;;;;;;54.88;49.78;;;;;;;;;;4983249;28;20065;-78
2022/02/06 02:49:39;;;;;;;54.15;49.33;;;;;;;;;;4976133;28;20073;-79
2022/02/06 02:52:10;;;;;;;;;;;;;;;;;;4978764;28;20011;-78
2022/02/06 02:54:37;;;;;;;56.67;51.17;;;;;;;;;;4987790;28;19932;-78
2022/02/06 02:57:20;;;;;;;55.88;50.70;;;;;;;;;;4967509;28;20093;-80
2022/02/06 03:00:19;;;;;;;56.13;50.83;;;;;;;;;;4973333;28;20019;-80
2022/02/06 03:02:46;;;;;;;58.38;52.17;;;;;;;;;;4972582;28;20014;-79
2022/02/06 03:05:11;;;;;;;56.88;51.30;;;;;;;;;;4976783;28;20019;-80
2022/02/06 03:07:37;;;;;;;55.73;50.23;;;;;;;;;;4974186;28;20166;-80
2022/02/06 03:10:03;;;;;;;54.30;49.42;;;;;;;;;;4967352;28;20020;-79
2022/02/06 03:12:30;;;;;;;55.03;50.03;;;;;;;;;;4986690;28;20027;-79
2022/02/06 03:15:05;;;;;;;55.33;50.05;;;;;;;;;;4988848;28;20027;-78
2022/02/06 03:17:36;;;;;;;54.50;49.67;;;;;;;;;;4998270;28;20030;-79
2022/02/06 03:20:07;;;;;;;55.58;50.53;;;;;;;;;;5007495;28;20284;-79
2022/02/06 03:22:46;;;;;;;57.42;51.85;;;;;;;;;;4988770;28;20023;-81
2022/02/06 03:25:17;;;;;;;54.15;49.30;;;;;;;;;;4980159;28;20122;-78
2022/02/06 03:27:42;;;;;;;56.60;51.28;;;;;;;;;;4969638;28;20019;-80
2022/02/06 03:30:08;;;;;;;55.92;50.88;;;;;;;;;;4966986;28;20445;-79
2022/02/06 03:32:33;;;;;;;56.83;51.13;;;;;;;;;;4968864;28;20053;-78
2022/02/06 03:35:00;;;;;;;55.40;50.28;;;;;;;;;;4988284;28;20022;-80
2022/02/06 03:37:25;;;;;;;55.90;50.58;;;;;;;;;;4964547;28;20069;-79
2022/02/06 03:39:52;;;;;;;55.33;50.17;;;;;;;;;;4968485;28;20027;-80
2022/02/06 03:42:18;;;;;;;56.03;50.63;;;;;;;;;;4982528;28;20419;-78
2022/02/06 03:44:50;;;;;;;58.65;52.83;;;;;;;;;;4973303;28;20497;-80
2022/02/06 03:47:19;;;;;;;55.50;50.30;;;;;;;;;;4977802;28;20030;-78
2022/02/06 03:50:01;;;;;;;55.00;50.00;;;;;;;;;;4967999;28;20015;-78
2022/02/06 03:52:32;;;;;;;56.28;50.70;;;;;;;;;;4986805;28;20017;-77
2022/02/06 03:54:58;;;;;;;55.85;50.65;;;;;;;;;;4962896;28;20018;-77
2022/02/06 03:57:23;;;;;;;56.30;50.90;;;;;;;;;;4972642;28;20018;-78
2022/02/06 03:59:48;;;;;;;55.63;50.47;;;;;;;;;;4970665;28;20094;-77
2022/02/06 04:02:13;;;;;;;55.30;50.17;;;;;;;;;;4967197;28;20035;-79
2022/02/06 04:04:38;;;;;;;55.13;50.07;;;;;;;;;;4987948;28;20030;-77
2022/02/06 04:07:07;;;;;;;53.90;49.20;;;;;;;;;;4967759;28;20023;-80
2022/02/06 04:09:38;;;;;;;55.58;50.33;;;;;;;;;;4965745;28;20065;-79
2022/02/06 04:12:04;;;;;;;58.88;52.70;;;;;;;;;;4991269;23;20047;-79
2022/02/06 04:14:40;;;;;;;54.72;49.72;;;;;;;;;;4976324;28;20026;-79
2022/02/06 04:17:18;;;;;;;54.47;49.63;;;;;;;;;;4976124;28;20019;-80
2022/02/06 04:19:43;;;;;;;56.42;51.03;;;;;;;;;;4976498;28;20028;-80
2022/02/06 04:22:08;;;;;;;57.33;51.60;;;;;;;;;;4974368;28;20000;-81
2022/02/06 04:24:33;;;;;;;54.40;49.40;;;;;;;;;;4972839;28;20008;-81
2022/02/06 04:26:59;;;;;;;54.40;49.40;;;;;;;;;;4977163;28;20023;-79
2022/02/06 04:29:24;;;;;;;56.73;51.07;;;;;;;;;;4978653;28;20011;-81
2022/02/06 04:31:50;;;;;;;54.60;49.77;;;;;;;;;;4974227;28;20015;-80
2022/02/06 04:34:21;;;;;;;56.40;51.00;;;;;;;;;;4969304;28;20023;-81
2022/02/06 04:42:27;;;;;;;57.65;51.60;;;;;;;;;;4974376;28;20024;-81
2022/02/06 04:53:31;;;;;;;56.35;50.95;;;;;;;;;;4967951;28;20417;-82
2022/02/06 05:22:44;;;;;;;59.70;53.28;;;;;;;;;;4959699;28;20035;-83
2022/02/06 05:30:27;;;;;;;54.80;49.90;;;;;;;;;;4963507;28;20051;-83
2022/02/06 05:35:20;;;;;;;55.17;50.13;;;;;;;;;;4966650;28;20082;-82
2022/02/06 05:37:46;;;;;;;54.47;49.57;;;;;;;;;;4970749;28;20027;-81
2022/02/06 05:40:11;;;;;;;55.13;50.13;;;;;;;;;;4962103;28;20366;-81
2022/02/06 05:42:36;;;;;;;56.70;51.20;;;;;;;;;;4966649;28;20055;-82
2022/02/06 05:45:02;;;;;;;56.30;50.63;;;;;;;;;;4970338;28;20026;-83
2022/02/06 05:47:28;;;;;;;56.45;50.92;;;;;;;;;;4965565;28;20027;-83
2022/02/06 05:49:54;;;;;;;56.03;50.53;;;;;;;;;;4965624;28;20421;-83
2022/02/06 05:52:20;;;;;;;58.22;52.17;;;;;;;;;;4963263;28;20030;-84
2022/02/06 05:54:45;;;;;;;54.60;49.67;;;;;;;;;;4986756;28;20042;-81
2022/02/06 05:57:14;;;;;;;54.67;49.40;;;;;;;;;;4979153;28;20027;-80
2022/02/06 05:59:39;;;;;;;54.42;49.50;;;;;;;;;;4978695;28;20023;-82
2022/02/06 06:02:04;;;;;;;56.20;50.50;;;;;;;;;;4973533;28;20095;-84
2022/02/06 06:04:33;;;;;;;54.13;49.23;;;;;;;;;;4973663;28;20019;-84
2022/02/06 06:06:58;;;;;;;54.38;49.38;;;;;;;;;;4972973;28;20031;-83
2022/02/06 06:09:24;;;;;;;54.85;49.90;;;;;;;;;;4985131;28;20033;-84
2022/02/06 06:11:50;;;;;;;54.07;48.97;;;;;;;;;;4974250;28;20024;-84
2022/02/06 06:14:18;;;;;;;55.13;49.78;;;;;;;;;;4960615;28;20078;-85
2022/02/06 06:16:45;;;;;;;53.78;48.78;;;;;;;;;;4972714;28;20019;-82
2022/02/06 06:19:12;;;;;;;53.75;48.78;;;;;;;;;;4964040;28;20449;-84
2022/02/06 06:21:41;;;;;;;53.28;48.22;;;;;;;;;;4976553;28;20034;-84
2022/02/06 06:24:07;;;;;;;54.63;49.28;;;;;;;;;;4979341;28;20425;-85
2022/02/06 06:26:39;;;;;;;54.38;49.30;;;;;;;;;;4970780;28;20081;-85
2022/02/06 06:29:04;;;;;;;53.58;48.55;;;;;;;;;;4964617;29;20031;-85
2022/02/06 06:31:30;;;;;;;54.22;49.13;;;;;;;;;;4965131;28;20055;-83
2022/02/06 06:33:56;;;;;;;53.20;48.30;;;;;;;;;;4963434;28;20028;-84
2022/02/06 06:36:21;;;;;;;52.47;47.93;;;;;;;;;;4962923;28;20024;-84
2022/02/06 06:38:49;;;;;;;51.83;47.40;;;;;;;;;;4962512;28;20086;-85
2022/02/06 06:41:18;;;;;;;54.65;49.20;;;;;;;;;;4961892;28;20031;-86
2022/02/06 06:44:25;;;;;;;52.35;47.75;;;;;;;;;;4966918;28;20028;-86
2022/02/06 06:46:51;;;;;;;52.13;47.45;;;;;;;;;;4949032;29;20048;-84
2022/02/06 06:49:22;;;;;;;55.25;49.60;;;;;;;;;;4967423;28;20019;-84
2022/02/06 06:51:48;;;;;;;52.20;47.53;;;;;;;;;;4964629;28;20054;-84
2022/02/06 06:54:21;;;;;;;51.80;47.33;;;;;;;;;;4960776;28;20508;-85
2022/02/06 06:56:55;;;;;;;52.33;47.65;;;;;;;;;;4959779;28;20110;-84
2022/02/06 07:04:41;;;;;;;51.97;47.08;;;;;;;;;;4962698;28;20051;-84
2022/02/06 07:07:21;;;;;;;51.50;46.97;;;;;;;;;;4969990;28;20023;-84
2022/02/06 07:09:50;;;;;;;52.20;47.50;;;;;;;;;;4949016;29;20027;-85
2022/02/06 07:12:21;;;;;;;54.38;49.03;;;;;;;;;;4965468;28;20058;-83
2022/02/06 07:14:50;;;;;;;52.10;47.15;;;;;;;;;;4974330;28;20058;-82
2022/02/06 07:17:16;;;;;;;52.47;47.60;;;;;;;;;;4968900;28;20511;-84
2022/02/06 07:19:59;;;;;;;52.20;47.50;;;;;;;;;;4971696;28;20023;-86
2022/02/06 07:22:25;;;;;;;55.28;49.75;;;;;;;;;;4969071;28;20114;-83
2022/02/06 07:24:53;;;;;;;52.08;47.42;;;;;;;;;;4973623;28;20048;-84
2022/02/06 07:30:13;;;;;;;51.67;47.17;;;;;;;;;;4957222;28;20012;-84
2022/02/06 07:32:39;;;;;;;56.43;50.60;;;;;;;;;;4968269;28;20047;-83
2022/02/06 07:35:06;;;;;;;51.65;47.15;;;;;;;;;;4972673;28;20058;-86
2022/02/06 07:37:32;;;;;;;53.05;48.13;;;;;;;;;;4963446;28;20059;-84
2022/02/06 07:40:17;;;;;;;52.27;47.33;;;;;;;;;;4963681;29;20085;-83
2022/02/06 07:42:43;;;;;;;54.60;49.25;;;;;;;;;;4965829;28;20027;-84
2022/02/06 07:45:13;;;;;;;52.97;47.87;;;;;;;;;;4970519;28;20026;-83
2022/02/06 07:47:44;;;;;;;51.05;46.72;;;;;;;;;;4960144;29;20345;-83
2022/02/06 07:51:04;;;;;;;;;;;;;;;;;;;;;
2022/02/06 07:53:30;;;;;;;52.67;47.72;;;;;;;;;;4937433;28;20063;-87
2022/02/06 07:55:55;;;;;;;52.07;47.53;;;;;;;;;;4970138;28;20026;-87
2022/02/06 07:58:59;;;;;;;52.20;47.13;;;;;;;;;;4971958;28;20031;-87
2022/02/06 08:01:25;;;;;;;52.75;47.75;;;;;;;;;;4978013;28;20025;-87
2022/02/06 08:03:54;;;;;;;51.75;47.03;;;;;;;;;;4974669;28;20027;-87
2022/02/06 08:06:19;;;;;;;54.83;49.53;;;;;;;;;;4974043;28;20103;-87
2022/02/06 08:08:45;;;;;;;53.17;48.10;;;;;;;;;;4982952;28;20051;-85
2022/02/06 08:11:14;;;;;;;52.27;47.43;;;;;;;;;;4973660;28;20066;-85
2022/02/06 08:13:45;;;;;;;52.03;47.33;;;;;;;;;;4976835;28;20034;-85
2022/02/06 08:16:11;;;;;;;53.25;48.28;;;;;;;;;;4979632;28;20023;-84
2022/02/06 08:18:42;;;;;;;51.73;47.00;;;;;;;;;;4973869;28;20007;-84
2022/02/06 08:21:07;;;;;;;53.88;48.70;;;;;;;;;;4977120;28;20010;-83
2022/02/06 08:23:32;;;;;;;53.97;48.92;;;;;;;;;;4974475;28;21105;-82
2022/02/06 08:25:58;;;;;;;53.20;48.23;;;;;;;;;;4976664;28;20023;-82
2022/02/06 08:28:23;;;;;;;53.43;48.33;;;;;;;;;;4990424;28;20049;-83
2022/02/06 08:30:48;;;;;;;52.03;47.40;;;;;;;;;;4976943;28;20023;-82
2022/02/06 08:33:14;;;;;;;52.90;48.00;;;;;;;;;;4982673;28;20098;-82
2022/02/06 08:35:39;;;;;;;51.37;46.87;;;;;;;;;;4971194;28;20024;-85
2022/02/06 08:38:04;;;;;;;56.47;50.43;;;;;;;;;;4975169;28;20046;-82
2022/02/06 08:40:31;;;;;;;52.23;47.60;;;;;;;;;;4973433;28;20027;-85
2022/02/06 08:42:57;;;;;;;54.00;48.90;;;;;;;;;;4973846;28;20019;-84
2022/02/06 08:45:23;;;;;;;52.47;47.70;;;;;;;;;;4975721;28;20027;-85
2022/02/06 08:47:50;;;;;;;51.95;47.33;;;;;;;;;;4968282;28;20035;-81
2022/02/06 08:50:15;;;;;;;54.67;49.17;;;;;;;;;;4964815;29;20038;-84
2022/02/06 08:52:40;;;;;;;57.67;51.40;;;;;;;;;;4963975;28;20019;-82
2022/02/06 08:55:08;;;;;;;51.77;47.20;;;;;;;;;;4966008;28;20011;-84
2022/02/06 08:57:34;;;;;;;52.80;47.88;;;;;;;;;;4965221;28;20130;-83
2022/02/06 08:59:59;;;;;;;52.15;47.65;;;;;;;;;;4981128;28;20031;-85
2022/02/06 09:02:25;;;;;;;54.07;48.70;;;;;;;;;;4977754;28;20027;-83
2022/02/06 09:04:50;;;;;;;51.23;46.77;;;;;;;;;;4975506;28;20020;-80
2022/02/06 09:07:17;;;;;;;52.87;47.97;;;;;;;;;;4980517;28;20022;-81
2022/02/06 09:09:48;;;;;;;;;;;;;;;;;;4981021;28;20027;-81
2022/02/06 09:12:14;;;;;;;53.30;48.28;;;;;;;;;;4994757;28;19899;-81
2022/02/06 09:14:50;;;;;;;52.70;47.92;;;;;;;;;;4987140;28;20107;-83
2022/02/06 09:20:32;;;;;;;52.00;47.30;;;;;;;;;;4981169;28;20018;-85
2022/02/06 09:23:27;;;;;;;53.63;48.45;;;;;;;;;;4981273;28;20038;-86
2022/02/06 09:25:53;;;;;;;53.05;48.15;;;;;;;;;;4958001;28;20043;-86
2022/02/06 09:28:18;;;;;;;52.58;47.75;;;;;;;;;;4971917;28;20027;-84
2022/02/06 09:30:43;;;;;;;53.83;48.67;;;;;;;;;;4977618;28;20095;-85
2022/02/06 09:36:08;;;;;;;53.63;48.50;;;;;;;;;;4973516;28;20015;-86
2022/02/06 09:38:36;;;;;;;52.38;47.65;;;;;;;;;;4977211;28;20107;-84
2022/02/06 09:41:18;;;;;;;;;;;;;;;;;;;;;
2022/02/06 09:43:57;;;;;;;51.90;47.30;;;;;;;;;;4968065;28;20066;-84
2022/02/06 09:47:04;;;;;;;55.10;49.63;;;;;;;;;;4989603;28;20026;-86
2022/02/06 09:49:33;;;;;;;51.33;46.90;;;;;;;;;;4972581;29;20035;-83
2022/02/06 09:51:59;;;;;;;53.92;48.67;;;;;;;;;;4972680;28;20043;-85
2022/02/06 09:54:29;;;;;;;53.37;48.37;;;;;;;;;;4962856;28;20020;-82
2022/02/06 09:56:56;;;;;;;52.63;47.67;;;;;;;;;;4964047;28;20077;-82
2022/02/06 09:59:23;;;;;;;55.17;49.67;;;;;;;;;;4963808;28;20019;-82
2022/02/06 10:02:07;;;;;;;53.17;48.00;;;;;;;;;;4964129;28;20469;-81
2022/02/06 10:04:34;;;;;;;53.15;48.17;;;;;;;;;;4964670;28;20023;-80
2022/02/06 10:07:13;;;;;;;52.28;47.63;;;;;;;;;;4961510;28;20516;-82
2022/02/06 10:09:41;;;;;;;52.30;47.50;;;;;;;;;;4961159;28;20366;-82
2022/02/06 10:12:07;;;;;;;66.70;54.90;;;;;;;;;;5000877;23;20057;-88
2022/02/06 10:14:33;;;;;;;52.70;47.80;;;;;;;;;;5000517;28;20026;-88
2022/02/06 10:17:04;;;;;;;52.92;48.08;;;;;;;;;;4982986;28;20552;-88
2022/02/06 10:19:30;;;;;;;52.58;47.78;;;;;;;;;;4998415;28;20030;-88
2022/02/06 10:22:01;;;;;;;52.50;47.83;;;;;;;;;;4978666;28;20053;-88
2022/02/06 10:24:32;;;;;;;53.95;48.78;;;;;;;;;;4982167;28;20035;-88
2022/02/06 10:27:17;;;;;;;54.88;49.55;;;;;;;;;;4981114;28;20077;-87
2022/02/06 10:29:44;;;;;;;53.28;48.22;;;;;;;;;;4982970;28;20041;-89
2022/02/06 10:32:16;;;;;;;52.83;48.03;;;;;;;;;;4975692;28;20023;-88
2022/02/06 10:34:43;;;;;;;52.60;47.92;;;;;;;;;;4996770;28;20016;-88
2022/02/06 10:37:08;;;;;;;;;;;;;;;;;;4961411;28;20380;-89
2022/02/06 10:39:36;;;;;;;53.47;48.55;;;;;;;;;;4982830;28;19916;-87
2022/02/06 10:42:04;;;;;;;52.97;48.22;;;;;;;;;;4982635;28;20058;-87
2022/02/06 10:44:31;;;;;;;52.72;48.03;;;;;;;;;;4979481;28;20022;-88
2022/02/06 10:47:00;;;;;;;53.55;48.65;;;;;;;;;;4984299;28;20028;-87
2022/02/06 10:49:26;;;;;;;55.33;49.72;;;;;;;;;;4983754;28;20467;-88
2022/02/06 10:51:58;;;;;;;54.13;48.88;;;;;;;;;;4972679;28;20031;-89
2022/02/06 10:54:29;;;;;;;53.60;48.75;;;;;;;;;;4992808;28;20015;-90
2022/02/06 10:57:01;;;;;;;54.63;49.35;;;;;;;;;;4983286;28;20538;-90
2022/02/06 10:59:29;;;;;;;55.40;50.15;;;;;;;;;;4973917;28;20031;-90
2022/02/06 11:01:55;;;;;;;56.88;51.03;;;;;;;;;;4981653;28;20371;-86
2022/02/06 11:04:32;;;;;;;54.67;49.50;;;;;;;;;;4978793;28;20050;-81
2022/02/06 11:07:12;;;;;;;55.53;49.90;;;;;;;;;;4978633;28;20026;-80
2022/02/06 11:09:38;;;;;;;59.67;51.80;;;;;;;;;;4967796;28;20086;-76
2022/02/06 11:12:09;;;;;;;61.63;52.07;;;;;;;;;;4966253;28;20024;-77
2022/02/06 11:14:38;;;;;;;57.63;51.42;;;;;;;;;;4967135;28;20313;-79
2022/02/06 11:17:14;;;;;;;64.10;52.47;;;;;;;;;;4974777;28;20104;-90
2022/02/06 11:19:55;;;;;;;63.03;51.85;;;;;;;;;;4978920;28;20521;-90
2022/02/06 11:22:21;;;;;;;56.08;50.22;;;;;;;;;;4982423;28;20025;-90
2022/02/06 11:24:46;;;;;;;53.80;48.67;;;;;;;;;;4979694;28;20043;-90
2022/02/06 11:27:11;;;;;;;54.03;48.67;;;;;;;;;;4974720;28;20039;-92
2022/02/06 11:29:36;;;;;;;54.50;49.13;;;;;;;;;;4986652;28;20030;-89
2022/02/06 11:32:05;;;;;;;53.53;48.43;;;;;;;;;;4980422;28;20045;-90
2022/02/06 11:34:30;;;;;;;54.45;49.22;;;;;;;;;;4994666;28;20022;-89
2022/02/06 11:45:33;;;;;;;51.92;47.35;;;;;;;;;;4990919;28;20068;-89
2022/02/06 11:48:04;;;;;;;52.40;47.47;;;;;;;;;;4990680;28;20023;-89
2022/02/06 11:50:31;;;;;;;53.78;48.80;;;;;;;;;;4993115;28;20027;-90
2022/02/06 11:52:57;;;;;;;53.45;48.17;;;;;;;;;;4989779;28;20037;-88
2022/02/06 11:55:36;;;;;;;52.65;47.78;;;;;;;;;;4994336;28;20014;-87
2022/02/06 11:58:28;;;;;;;53.70;48.63;;;;;;;;;;4988846;28;20047;-88
2022/02/06 12:01:05;;;;;;;54.85;49.38;;;;;;;;;;4991556;28;20014;-93
2022/02/06 12:03:50;;;;;;;53.22;48.28;;;;;;;;;;4994650;28;20007;-89
2022/02/06 12:06:15;;;;;;;54.60;49.30;;;;;;;;;;4991093;28;20065;-90
2022/02/06 12:08:44;;;;;;;52.93;48.07;;;;;;;;;;4997769;28;20050;-91
2022/02/06 12:11:11;;;;;;;53.17;48.13;;;;;;;;;;4997830;28;20007;-92
2022/02/06 12:13:38;;;;;;;54.40;48.90;;;;;;;;;;4997390;28;20014;-91
2022/02/06 12:16:05;;;;;;;51.97;47.38;;;;;;;;;;4993489;28;20053;-89
2022/02/06 12:18:38;;;;;;;53.58;48.42;;;;;;;;;;4997214;28;20115;-91
2022/02/06 12:21:12;;;;;;;52.20;47.47;;;;;;;;;;4999792;28;20030;-89
2022/02/06 12:23:37;;;;;;;52.70;47.83;;;;;;;;;;4996348;28;20019;-89
2022/02/06 12:26:03;;;;;;;52.88;48.05;;;;;;;;;;4995790;28;20042;-90
2022/02/06 12:28:31;;;;;;;53.05;48.33;;;;;;;;;;4980744;28;20276;-89
2022/02/06 12:31:18;;;;;;;52.10;47.50;;;;;;;;;;4983147;28;20027;-89
2022/02/06 12:33:52;;;;;;;52.25;47.50;;;;;;;;;;5001885;28;20033;-87
2022/02/06 12:39:23;;;;;;;53.15;48.15;;;;;;;;;;4990593;28;20022;-89
2022/02/06 12:41:49;;;;;;;51.63;47.05;;;;;;;;;;4991933;28;20023;-89
2022/02/06 12:44:16;;;;;;;52.53;47.67;;;;;;;;;;4991725;28;20698;-90
2022/02/06 12:46:42;;;;;;;52.20;47.45;;;;;;;;;;4992797;28;20054;-89
2022/02/06 12:49:07;;;;;;;51.25;46.75;;;;;;;;;;4993344;28;20003;-87
2022/02/06 12:51:35;;;;;;;51.53;46.93;;;;;;;;;;4994113;28;20027;-88
2022/02/06 12:54:05;;;;;;;54.00;48.72;;;;;;;;;;4985611;28;20037;-88
2022/02/06 12:56:31;;;;;;;52.13;47.45;;;;;;;;;;4992925;28;20107;-87
2022/02/06 12:58:59;;;;;;;54.50;48.70;;;;;;;;;;5008556;28;20023;-88
2022/02/06 13:01:37;;;;;;;52.15;47.33;;;;;;;;;;5011332;28;20038;-88
2022/02/06 13:04:02;;;;;;;54.25;48.97;;;;;;;;;;5003596;28;20075;-89
2022/02/06 13:06:38;;;;;;;53.77;48.50;;;;;;;;;;4990455;28;20798;-88
2022/02/06 13:09:07;;;;;;;53.33;48.30;;;;;;;;;;5009981;28;20015;-87
2022/02/06 13:11:43;;;;;;;55.33;49.60;;;;;;;;;;4993214;28;20015;-88
2022/02/06 13:22:10;;;;;;;53.05;48.05;;;;;;;;;;4983837;28;20027;-85
2022/02/06 13:30:33;;;;;;;52.97;47.80;;;;;;;;;;4978902;28;20058;-88
2022/02/06 13:33:12;;;;;;;55.58;49.50;;;;;;;;;;5083351;23;20148;-91
2022/02/06 13:35:44;;;;;;;53.88;48.58;;;;;;;;;;4973933;28;20134;-86
2022/02/06 13:38:19;;;;;;;51.08;46.70;;;;;;;;;;4980786;28;20039;-87
2022/02/06 13:43:42;;;;;;;52.55;47.67;;;;;;;;;;4965180;28;20023;-88
2022/02/06 13:46:16;;;;;;;52.70;47.83;;;;;;;;;;4978427;28;20031;-91
2022/02/06 13:49:33;;;;;;;;;;;;;;;;;;;;;
2022/02/06 13:52:31;;;;;;;52.60;47.75;;;;;;;;;;4947437;29;20070;-89
2022/02/06 14:13:43;;;;;;;53.88;48.63;;;;;;;;;;5053817;23;20054;-81
2022/02/06 14:16:11;;;;;;;51.47;46.93;;;;;;;;;;4974533;28;20416;-84
2022/02/06 14:18:50;;;;;;;51.35;46.88;;;;;;;;;;4958967;28;20059;-84
2022/02/06 14:21:16;;;;;;;53.42;48.45;;;;;;;;;;4962950;28;20058;-82
2022/02/06 14:23:41;;;;;;;53.17;48.07;;;;;;;;;;4955029;28;20361;-81
2022/02/06 14:26:11;;;;;;;52.70;47.77;;;;;;;;;;4966048;28;20102;-85
2022/02/06 14:28:45;;;;;;;52.55;47.75;;;;;;;;;;4961412;28;20392;-86
2022/02/06 14:31:24;;;;;;;51.38;46.80;;;;;;;;;;4967819;28;20026;-84
2022/02/06 14:33:50;;;;;;;51.60;47.17;;;;;;;;;;4956865;29;20020;-86
2022/02/06 14:36:21;;;;;;;51.45;47.00;;;;;;;;;;4963695;28;20026;-85
2022/02/06 14:38:51;;;;;;;51.70;47.15;;;;;;;;;;4962957;29;20028;-83
2022/02/06 14:41:26;;;;;;;53.08;48.15;;;;;;;;;;4967011;28;20027;-88
2022/02/06 14:43:53;;;;;;;53.80;48.58;;;;;;;;;;4959269;28;20066;-81
2022/02/06 14:46:18;;;;;;;;;;;;;;;;;;4971499;28;20087;-81
2022/02/06 14:48:44;;;;;;;53.28;48.20;;;;;;;;;;4971340;28;19981;-82
2022/02/06 14:51:12;;;;;;;53.78;48.45;;;;;;;;;;4969245;28;20098;-85
2022/02/06 14:53:39;;;;;;;50.97;46.58;;;;;;;;;;4964685;28;20023;-78
2022/02/06 14:56:04;;;;;;;;;;;;;;;;;;4970322;28;20020;-81
2022/02/06 14:58:29;;;;;;;52.70;47.83;;;;;;;;;;4967694;28;20078;-80
2022/02/06 15:00:55;;;;;;;56.27;49.40;;;;;;;;;;4974639;28;20090;-84
2022/02/06 15:03:21;;;;;;;57.10;50.47;;;;;;;;;;4963507;28;20047;-85
2022/02/06 15:05:56;;;;;;;51.53;46.90;;;;;;;;;;4970261;28;20066;-86
2022/02/06 15:08:29;;;;;;;51.63;47.22;;;;;;;;;;4964614;28;20058;-89
2022/02/06 15:10:55;;;;;;;53.83;48.78;;;;;;;;;;4965418;28;20120;-81
2022/02/06 15:13:20;;;;;;;51.87;47.03;;;;;;;;;;4961914;28;20019;-82
2022/02/06 15:15:53;;;;;;;52.17;47.47;;;;;;;;;;4971341;28;20047;-81
2022/02/06 15:20:49;;;;;;;55.03;49.08;;;;;;;;;;4983337;28;20023;-89
2022/02/06 15:23:14;;;;;;;57.47;50.15;;;;;;;;;;4990412;28;20178;-88
2022/02/06 15:25:39;;;;;;;52.57;47.57;;;;;;;;;;4978987;28;20191;-84
2022/02/06 15:28:04;;;;;;;56.10;50.00;;;;;;;;;;4972191;28;20011;-80
2022/02/06 15:30:30;;;;;;;53.33;48.23;;;;;;;;;;4977269;28;20031;-78
2022/02/06 15:32:55;;;;;;;69.07;53.63;;;;;;;;;;4973164;28;20231;-80
2022/02/06 15:35:20;;;;;;;94.53;60.00;;;;;;;;;;4965119;28;20023;-80
2022/02/06 15:37:47;;;;;;;71.37;54.57;;;;;;;;;;4970014;28;20090;-79
2022/02/06 15:40:16;;;;;;;54.30;48.97;;;;;;;;;;4966581;28;20070;-76
2022/02/06 15:42:42;;;;;;;67.70;54.22;;;;;;;;;;4958201;28;20559;-76
2022/02/06 15:45:07;;;;;;;58.63;51.63;;;;;;;;;;4958228;28;20027;-85
2022/02/06 15:47:32;;;;;;;54.83;49.23;;;;;;;;;;4967409;28;20031;-81
2022/02/06 15:49:58;;;;;;;55.73;49.33;;;;;;;;;;4980866;28;20027;-82
2022/02/06 15:52:23;;;;;;;56.50;50.53;;;;;;;;;;4959719;28;20018;-85
2022/02/06 15:54:49;;;;;;;54.57;48.93;;;;;;;;;;4956070;28;20107;-82
2022/02/06 15:57:14;;;;;;;52.93;48.00;;;;;;;;;;4963017;29;20019;-84
2022/02/06 15:59:45;;;;;;;61.90;51.83;;;;;;;;;;4956918;28;20019;-80
2022/02/06 16:02:11;;;;;;;56.13;50.22;;;;;;;;;;4958169;28;20025;-81
2022/02/06 16:04:36;;;;;;;56.00;50.40;;;;;;;;;;4956335;28;20083;-81
2022/02/06 16:07:01;;;;;;;54.43;48.80;;;;;;;;;;4966476;28;20019;-81
2022/02/06 16:09:31;;;;;;;54.07;48.93;;;;;;;;;;4963782;28;20030;-81
2022/02/06 16:11:57;;;;;;;55.33;48.95;;;;;;;;;;4959227;28;20023;-80
2022/02/06 16:14:22;;;;;;;54.67;49.00;;;;;;;;;;4964994;28;20159;-82
2022/02/06 16:16:47;;;;;;;53.13;48.00;;;;;;;;;;4960396;28;20058;-82
2022/02/06 16:19:15;;;;;;;54.30;48.93;;;;;;;;;;4955278;28;20504;-81
2022/02/06 16:21:40;;;;;;;54.08;48.70;;;;;;;;;;4957338;28;20047;-81
2022/02/06 16:24:05;;;;;;;53.17;48.13;;;;;;;;;;4959495;28;20038;-82
2022/02/06 16:26:30;;;;;;;53.70;48.63;;;;;;;;;;4957393;28;20031;-80
2022/02/06 16:28:57;;;;;;;54.30;48.90;;;;;;;;;;4951565;28;20156;-78
2022/02/06 16:31:23;;;;;;;54.22;48.50;;;;;;;;;;4953586;28;20358;-80
2022/02/06 16:33:49;;;;;;;55.40;49.72;;;;;;;;;;4967177;28;20030;-80
2022/02/06 16:36:14;;;;;;;53.25;48.30;;;;;;;;;;4972852;28;20015;-79
2022/02/06 16:38:40;;;;;;;53.40;48.10;;;;;;;;;;4967041;28;20031;-80
2022/02/06 16:41:06;;;;;;;51.40;47.00;;;;;;;;;;4967943;28;20029;-81
2022/02/06 16:43:31;;;;;;;52.90;47.63;;;;;;;;;;4957080;28;20031;-80
2022/02/06 16:45:57;;;;;;;53.40;48.25;;;;;;;;;;4951618;28;20034;-79
2022/02/06 16:48:22;;;;;;;52.47;47.57;;;;;;;;;;4956491;29;20023;-79
2022/02/06 16:50:48;;;;;;;53.50;47.90;;;;;;;;;;4969102;28;20015;-79
2022/02/06 16:53:17;;;;;;;54.23;48.70;;;;;;;;;;4958601;28;20031;-80
2022/02/06 16:55:42;;;;;;;51.80;47.13;;;;;;;;;;4965357;28;20019;-81
2022/02/06 16:58:07;;;;;;;51.97;46.83;;;;;;;;;;4971004;28;20016;-81
2022/02/06 17:00:51;;;;;;;52.63;47.45;;;;;;;;;;4982992;28;20007;-80
2022/02/06 17:03:27;;;;;;;55.33;49.35;;;;;;;;;;4988301;28;20046;-80
2022/02/06 17:05:52;;;;;;;52.28;47.20;;;;;;;;;;4981264;28;20058;-80
2022/02/06 17:08:22;;;;;;;52.33;47.50;;;;;;;;;;4991035;28;20090;-82
2022/02/06 17:10:47;;;;;;;52.45;47.55;;;;;;;;;;5001807;28;20012;-81
2022/02/06 17:13:14;;;;;;;57.67;49.63;;;;;;;;;;4987645;28;20038;-81
2022/02/06 17:15:41;;;;;;;61.40;50.72;;;;;;;;;;4975950;28;20104;-81
2022/02/06 17:18:15;;;;;;;56.22;49.50;;;;;;;;;;4993270;28;20012;-84
2022/02/06 17:20:41;;;;;;;54.65;48.47;;;;;;;;;;4979017;28;20026;-88
2022/02/06 17:23:07;;;;;;;58.42;50.42;;;;;;;;;;4982044;28;20027;-83
2022/02/06 17:25:33;;;;;;;56.85;50.88;;;;;;;;;;4980846;28;20019;-86
2022/02/06 17:27:58;;;;;;;54.27;48.83;;;;;;;;;;4984128;28;20098;-86
2022/02/06 17:30:23;;;;;;;51.70;46.93;;;;;;;;;;4990851;28;20097;-85